Time;durP1;ratioP1;P1;durP2;ratioP2;P2;SDS_P1;SDS_P2;PMS_P1;PMS_P2;Temp;Humidity;BMP_temperature;BMP_pressure;BME280_temperature;BME280_humidity;BME280_pressure;Samples;Min_cycle;Max_cycle;Signal;HPM_P1;HPM_P2
2021/09/06 00:00:12;;;;;;;3.60;1.77;;;486.90;1177.60;;;;;;5073594;28;20429;-65
2021/09/06 00:02:40;;;;;;;4.15;1.27;;;486.90;1177.60;;;;;;5072610;28;20036;-65
2021/09/06 00:05:09;;;;;;;2.83;1.75;;;486.90;1177.60;;;;;;5073402;28;20025;-64
2021/09/06 00:07:35;;;;;;;4.03;1.63;;;486.90;1177.60;;;;;;5073387;28;20094;-65
2021/09/06 00:10:19;;;;;;;2.42;1.60;;;486.90;1177.60;;;;;;5073879;28;20461;-64
2021/09/06 00:12:46;;;;;;;2.38;1.73;;;486.90;1177.60;;;;;;5073276;28;20074;-64
2021/09/06 00:15:12;;;;;;;3.80;1.50;;;486.90;1177.60;;;;;;5073578;28;20028;-65
2021/09/06 00:17:38;;;;;;;3.92;1.58;;;486.80;1177.60;;;;;;5073549;28;20386;-64
2021/09/06 00:20:05;;;;;;;1.83;1.45;;;486.80;1177.60;;;;;;5073147;28;20024;-65
2021/09/06 00:22:32;;;;;;;3.38;1.55;;;486.80;1177.60;;;;;;5073298;28;20024;-65
2021/09/06 00:24:57;;;;;;;7.03;1.83;;;486.80;1177.60;;;;;;5075728;28;20033;-65
2021/09/06 00:27:23;;;;;;;2.70;1.45;;;486.80;1177.60;;;;;;5077657;28;20028;-65
2021/09/06 00:29:49;;;;;;;2.75;1.65;;;486.70;1177.60;;;;;;5077626;28;20411;-64
2021/09/06 00:32:14;;;;;;;3.20;1.60;;;486.70;1177.60;;;;;;5077503;28;20035;-65
2021/09/06 00:34:40;;;;;;;2.53;1.58;;;486.70;1177.60;;;;;;5059300;28;20028;-64
2021/09/06 00:37:06;;;;;;;3.85;1.60;;;486.60;1177.60;;;;;;5077359;28;20024;-65
2021/09/06 00:39:32;;;;;;;1.98;1.48;;;486.70;1203.20;;;;;;5077323;28;20032;-64
2021/09/06 00:41:57;;;;;;;2.45;1.40;;;486.60;1203.20;;;;;;5077344;28;20027;-65
2021/09/06 00:44:23;;;;;;;2.92;1.70;;;486.60;1203.20;;;;;;5077107;28;20078;-65
2021/09/06 00:46:49;;;;;;;3.97;1.83;;;486.50;1177.60;;;;;;5059325;28;20043;-65
2021/09/06 00:49:18;;;;;;;3.00;1.23;;;486.50;1203.20;;;;;;5076928;28;20478;-65
2021/09/06 00:51:45;;;;;;;3.10;1.70;;;486.50;1203.20;;;;;;5076965;28;20033;-65
2021/09/06 00:54:12;;;;;;;2.53;1.48;;;486.40;1203.20;;;;;;5077211;28;20029;-64
2021/09/06 00:56:38;;;;;;;8.48;1.50;;;486.40;1203.20;;;;;;5075507;28;20040;-65
2021/09/06 00:59:04;;;;;;;3.67;1.50;;;486.40;1203.20;;;;;;5076674;28;20029;-65
2021/09/06 01:01:30;;;;;;;4.63;1.55;;;486.40;1203.20;;;;;;5076954;28;20040;-65
2021/09/06 01:03:55;;;;;;;3.90;1.80;;;486.40;1203.20;;;;;;5058768;28;20066;-64
2021/09/06 01:06:21;;;;;;;4.07;1.45;;;461.70;1203.20;;;;;;5058584;28;20036;-65
2021/09/06 01:08:47;;;;;;;2.97;2.17;;;461.70;1228.80;;;;;;5076503;28;20534;-65
2021/09/06 01:11:13;;;;;;;5.70;1.52;;;461.60;1203.20;;;;;;5058747;28;20041;-65
2021/09/06 01:13:38;;;;;;;3.83;1.42;;;461.70;1203.20;;;;;;5076203;28;20044;-65
2021/09/06 01:16:04;;;;;;;2.85;1.70;;;461.60;1228.80;;;;;;5076591;28;20036;-65
2021/09/06 01:18:30;;;;;;;6.38;1.65;;;461.60;1203.20;;;;;;5076333;28;20036;-65
2021/09/06 01:20:56;;;;;;;5.22;1.50;;;461.60;1203.20;;;;;;5076654;28;20370;-65
2021/09/06 01:23:21;;;;;;;2.00;1.70;;;461.50;1203.20;;;;;;5076652;28;20028;-65
2021/09/06 01:25:51;;;;;;;1.95;1.40;;;461.50;1203.20;;;;;;5057424;28;20429;-65
2021/09/06 01:28:17;;;;;;;2.65;1.60;;;461.50;1203.20;;;;;;5076423;28;20033;-65
2021/09/06 01:30:43;;;;;;;3.17;2.03;;;461.40;1228.80;;;;;;5076332;28;20027;-65
2021/09/06 01:33:09;;;;;;;3.78;1.70;;;461.40;1228.80;;;;;;5075952;28;20091;-65
2021/09/06 01:35:35;;;;;;;2.97;1.73;;;461.40;1228.80;;;;;;5074761;28;20020;-65
2021/09/06 01:38:01;;;;;;;2.97;1.70;;;461.30;1228.80;;;;;;5076011;28;20378;-65
2021/09/06 01:40:26;;;;;;;2.03;1.58;;;461.30;1254.40;;;;;;5076797;28;20028;-65
2021/09/06 01:42:52;;;;;;;3.05;1.50;;;461.20;1254.40;;;;;;5076119;28;20413;-65
2021/09/06 01:45:18;;;;;;;1.65;1.45;;;461.30;1254.40;;;;;;5057457;28;20055;-65
2021/09/06 01:47:44;;;;;;;2.53;1.50;;;461.40;1254.40;;;;;;5058018;28;20041;-65
2021/09/06 01:50:10;;;;;;;3.95;1.50;;;461.30;1254.40;;;;;;5076423;28;20470;-64
2021/09/06 01:52:36;;;;;;;1.77;1.50;;;461.20;1254.40;;;;;;5076366;28;20020;-64
2021/09/06 01:55:03;;;;;;;3.83;1.70;;;461.20;1254.40;;;;;;5075829;28;20031;-65
2021/09/06 01:57:30;;;;;;;4.90;1.90;;;461.20;1254.40;;;;;;5075779;28;20029;-65
2021/09/06 01:59:56;;;;;;;3.92;1.67;;;461.30;1254.40;;;;;;5075688;28;20059;-65
2021/09/06 02:02:21;;;;;;;6.22;2.05;;;461.30;1254.40;;;;;;5075901;28;20095;-65
2021/09/06 02:04:48;;;;;;;3.30;1.80;;;461.30;1254.40;;;;;;5076152;28;20023;-64
2021/09/06 02:07:14;;;;;;;2.55;1.85;;;461.30;1254.40;;;;;;5075830;28;20067;-65
2021/09/06 02:09:39;;;;;;;4.10;2.40;;;461.30;1254.40;;;;;;5075829;28;20029;-65
2021/09/06 02:12:05;;;;;;;7.63;2.10;;;461.30;1254.40;;;;;;5075359;28;20482;-64
2021/09/06 02:14:31;;;;;;;3.67;1.83;;;461.20;1254.40;;;;;;5076159;28;20020;-65
2021/09/06 02:16:57;;;;;;;2.67;2.00;;;461.20;1254.40;;;;;;5075512;28;20492;-65
2021/09/06 02:19:22;;;;;;;2.03;1.40;;;461.20;1280.00;;;;;;5075549;28;20035;-65
2021/09/06 02:21:48;;;;;;;4.05;1.75;;;461.20;1254.40;;;;;;5075520;28;20104;-65
2021/09/06 02:24:15;;;;;;;2.70;1.60;;;461.10;1280.00;;;;;;5075449;28;20024;-64
2021/09/06 02:26:41;;;;;;;2.53;1.58;;;461.20;1280.00;;;;;;5075305;28;20068;-65
2021/09/06 02:29:07;;;;;;;3.60;2.05;;;461.10;1280.00;;;;;;5075490;28;20024;-64
2021/09/06 02:31:32;;;;;;;4.25;1.77;;;461.10;1280.00;;;;;;5075326;28;20059;-65
2021/09/06 02:33:58;;;;;;;2.30;1.80;;;461.00;1280.00;;;;;;5075681;28;20034;-65
2021/09/06 02:36:24;;;;;;;3.75;1.70;;;461.00;1280.00;;;;;;5074581;28;20099;-65
2021/09/06 02:38:50;;;;;;;7.43;2.08;;;460.90;1305.60;;;;;;5074986;28;20027;-65
2021/09/06 02:41:15;;;;;;;4.93;2.10;;;460.90;1305.60;;;;;;5074929;28;20032;-65
2021/09/06 02:43:41;;;;;;;2.15;1.40;;;460.90;1305.60;;;;;;5074837;28;20021;-65
2021/09/06 02:46:07;;;;;;;5.75;1.80;;;460.80;1305.60;;;;;;5074651;28;20378;-65
2021/09/06 02:48:33;;;;;;;4.50;1.73;;;460.80;1305.60;;;;;;5074731;28;20035;-65
2021/09/06 02:50:58;;;;;;;4.75;1.60;;;436.10;1305.60;;;;;;5074956;28;20043;-65
2021/09/06 02:53:24;;;;;;;5.55;1.55;;;436.10;1305.60;;;;;;5074922;28;20098;-65
2021/09/06 02:55:50;;;;;;;3.58;1.65;;;436.00;1331.20;;;;;;5074529;28;20028;-65
2021/09/06 02:58:15;;;;;;;2.88;1.80;;;435.90;1305.60;;;;;;5073854;28;20115;-65
2021/09/06 03:00:41;;;;;;;4.55;1.70;;;435.90;1331.20;;;;;;5074702;28;20458;-65
2021/09/06 03:03:07;;;;;;;3.28;1.73;;;435.80;1331.20;;;;;;5074640;28;20044;-65
2021/09/06 03:05:33;;;;;;;5.10;2.25;;;435.80;1331.20;;;;;;5074562;28;20099;-65
2021/09/06 03:07:59;;;;;;;6.05;3.30;;;435.80;1331.20;;;;;;5074411;28;20032;-65
2021/09/06 03:10:25;;;;;;;10.45;3.42;;;435.70;1331.20;;;;;;5056495;28;20389;-65
2021/09/06 03:12:51;;;;;;;4.43;2.50;;;435.70;1356.80;;;;;;5073990;28;20048;-65
2021/09/06 03:15:17;;;;;;;6.43;2.50;;;435.70;1356.80;;;;;;5074324;28;20024;-65
2021/09/06 03:17:42;;;;;;;7.05;2.33;;;435.70;1356.80;;;;;;5074468;28;20024;-65
2021/09/06 03:20:08;;;;;;;7.88;2.35;;;435.60;1382.40;;;;;;5074305;28;20025;-65
2021/09/06 03:22:34;;;;;;;2.83;1.70;;;435.60;1356.80;;;;;;5074454;28;20129;-65
2021/09/06 03:25:00;;;;;;;6.00;1.65;;;435.50;1356.80;;;;;;5073804;28;20518;-64
2021/09/06 03:27:26;;;;;;;4.75;1.70;;;435.50;1382.40;;;;;;5073976;28;20033;-65
2021/09/06 03:29:51;;;;;;;7.30;2.17;;;435.40;1382.40;;;;;;5073884;28;20025;-65
2021/09/06 03:32:17;;;;;;;5.63;2.08;;;435.40;1382.40;;;;;;5074025;28;20038;-65
2021/09/06 03:34:43;;;;;;;2.53;2.00;;;435.40;1382.40;;;;;;5074111;28;20425;-65
2021/09/06 03:37:08;;;;;;;5.72;2.15;;;435.30;1382.40;;;;;;5073957;28;20556;-65
2021/09/06 03:39:34;;;;;;;3.20;1.60;;;435.30;1382.40;;;;;;5074012;28;20028;-65
2021/09/06 03:42:00;;;;;;;7.53;2.15;;;435.30;1382.40;;;;;;5073866;28;20029;-65
2021/09/06 03:44:26;;;;;;;4.97;2.00;;;435.20;1382.40;;;;;;5074332;28;20025;-65
2021/09/06 03:46:52;;;;;;;6.47;2.10;;;435.20;1382.40;;;;;;5073839;28;20438;-65
2021/09/06 03:49:18;;;;;;;2.83;1.70;;;435.20;1382.40;;;;;;5074508;28;20016;-65
2021/09/06 03:51:44;;;;;;;6.30;1.70;;;435.20;1382.40;;;;;;5074104;28;20046;-64
2021/09/06 03:54:09;;;;;;;5.80;2.20;;;435.20;1382.40;;;;;;5073504;28;20035;-64
2021/09/06 03:56:35;;;;;;;5.85;1.98;;;435.20;1408.00;;;;;;5074011;28;20055;-65
2021/09/06 03:59:01;;;;;;;5.38;2.20;;;435.20;1408.00;;;;;;5072676;28;20024;-65
2021/09/06 04:01:27;;;;;;;5.35;1.95;;;410.50;1408.00;;;;;;5073863;28;20029;-65
2021/09/06 04:03:52;;;;;;;4.40;2.03;;;410.50;1408.00;;;;;;5073753;28;20439;-65
2021/09/06 04:06:18;;;;;;;7.70;2.10;;;410.40;1408.00;;;;;;5073402;28;20036;-68
2021/09/06 04:08:44;;;;;;;2.92;1.77;;;410.50;1408.00;;;;;;5073682;28;20485;-66
2021/09/06 04:11:10;;;;;;;2.97;2.08;;;410.50;1408.00;;;;;;5073818;28;20158;-67
2021/09/06 04:13:35;;;;;;;4.85;2.10;;;410.50;1408.00;;;;;;5073391;28;20497;-66
2021/09/06 04:16:01;;;;;;;4.93;2.08;;;410.50;1408.00;;;;;;5054795;28;20478;-66
2021/09/06 04:18:27;;;;;;;3.13;1.77;;;410.40;1408.00;;;;;;5073720;28;20020;-66
2021/09/06 04:20:55;;;;;;;7.45;2.10;;;410.40;1408.00;;;;;;5074090;28;20462;-65
2021/09/06 04:23:20;;;;;;;6.70;2.67;;;410.40;1408.00;;;;;;5073342;28;20532;-66
2021/09/06 04:25:46;;;;;;;6.75;1.90;;;410.40;1408.00;;;;;;5073580;28;20087;-66
2021/09/06 04:28:12;;;;;;;6.07;2.13;;;410.30;1433.60;;;;;;5073448;28;20036;-66
2021/09/06 04:30:37;;;;;;;5.10;2.58;;;410.40;1433.60;;;;;;5055436;28;20543;-66
2021/09/06 04:33:03;;;;;;;3.83;2.15;;;410.40;1433.60;;;;;;5054901;28;20066;-66
2021/09/06 04:35:29;;;;;;;6.07;2.00;;;410.40;1433.60;;;;;;5073359;28;20025;-66
2021/09/06 04:37:55;;;;;;;7.32;2.17;;;410.30;1433.60;;;;;;5055085;28;20041;-65
2021/09/06 04:40:20;;;;;;;2.60;1.77;;;410.40;1433.60;;;;;;5073432;28;20153;-66
2021/09/06 04:42:46;;;;;;;5.43;2.22;;;410.40;1433.60;;;;;;5073370;28;20327;-66
2021/09/06 04:45:12;;;;;;;8.73;2.30;;;410.30;1433.60;;;;;;5073259;28;20529;-66
2021/09/06 04:47:38;;;;;;;3.55;1.70;;;410.30;1459.20;;;;;;5073140;28;20363;-66
2021/09/06 04:50:04;;;;;;;3.13;2.00;;;410.40;1459.20;;;;;;5073363;28;20108;-66
2021/09/06 04:52:30;;;;;;;4.00;1.77;;;410.40;1459.20;;;;;;5073244;28;20021;-67
2021/09/06 04:54:55;;;;;;;5.25;2.33;;;410.40;1459.20;;;;;;5073398;28;20078;-66
2021/09/06 04:57:22;;;;;;;3.80;2.10;;;410.30;1459.20;;;;;;5072983;28;20420;-66
2021/09/06 04:59:47;;;;;;;4.70;2.15;;;410.30;1459.20;;;;;;5055083;28;20033;-66
2021/09/06 05:02:13;;;;;;;4.15;2.00;;;410.30;1459.20;;;;;;5073328;28;20477;-66
2021/09/06 05:04:39;;;;;;;4.43;2.00;;;410.30;1459.20;;;;;;5072921;28;20024;-66
2021/09/06 05:07:05;;;;;;;9.25;3.03;;;410.30;1459.20;;;;;;5072580;28;20067;-66
2021/09/06 05:09:30;;;;;;;5.97;3.00;;;410.40;1459.20;;;;;;5055183;28;20037;-67
2021/09/06 05:11:56;;;;;;;7.50;3.63;;;410.40;1459.20;;;;;;5076167;28;20374;-66
2021/09/06 05:14:22;;;;;;;6.50;2.85;;;410.40;1459.20;;;;;;5076804;28;20028;-67
2021/09/06 05:16:47;;;;;;;4.57;2.88;;;410.40;1459.20;;;;;;5076822;28;20020;-66
2021/09/06 05:19:13;;;;;;;4.32;2.40;;;410.30;1459.20;;;;;;5076591;28;20386;-66
2021/09/06 05:21:39;;;;;;;7.85;2.88;;;410.30;1459.20;;;;;;5076472;28;20025;-66
2021/09/06 05:24:05;;;;;;;8.73;2.38;;;410.40;1459.20;;;;;;5058360;28;20032;-66
2021/09/06 05:26:30;;;;;;;5.72;2.15;;;410.50;1459.20;;;;;;5076183;28;20038;-66
2021/09/06 05:28:56;;;;;;;5.13;2.40;;;410.50;1459.20;;;;;;5076344;28;20108;-66
2021/09/06 05:31:22;;;;;;;4.15;2.20;;;410.50;1459.20;;;;;;5076526;28;20012;-67
2021/09/06 05:33:48;;;;;;;10.02;2.45;;;435.20;1459.20;;;;;;5076913;28;20017;-66
2021/09/06 05:36:15;;;;;;;6.55;2.40;;;435.20;1459.20;;;;;;5076253;28;20024;-66
2021/09/06 05:38:41;;;;;;;5.22;1.80;;;435.20;1459.20;;;;;;5058434;28;20035;-66
2021/09/06 05:41:07;;;;;;;7.38;2.58;;;435.20;1459.20;;;;;;5058142;28;20020;-66
2021/09/06 05:43:34;;;;;;;5.10;2.92;;;435.30;1459.20;;;;;;5076321;28;20047;-66
2021/09/06 05:45:59;;;;;;;5.53;2.20;;;435.40;1459.20;;;;;;5057225;28;20112;-66
2021/09/06 05:48:25;;;;;;;7.10;2.60;;;435.30;1459.20;;;;;;5076081;28;20095;-66
2021/09/06 05:50:51;;;;;;;8.93;2.70;;;435.40;1433.60;;;;;;5076036;28;20108;-66
2021/09/06 05:53:17;;;;;;;8.15;2.47;;;435.40;1459.20;;;;;;5075696;28;20024;-66
2021/09/06 05:55:43;;;;;;;10.40;2.60;;;435.50;1459.20;;;;;;5075940;28;20028;-66
2021/09/06 05:58:09;;;;;;;3.63;2.30;;;435.50;1459.20;;;;;;5076046;28;20151;-66
2021/09/06 06:00:35;;;;;;;8.48;2.35;;;435.50;1459.20;;;;;;5075704;28;20099;-67
2021/09/06 06:03:01;;;;;;;4.22;2.45;;;435.50;1459.20;;;;;;5076111;28;20533;-66
2021/09/06 06:05:27;;;;;;;3.22;2.28;;;435.60;1459.20;;;;;;5075366;28;20028;-66
2021/09/06 06:07:53;;;;;;;6.35;2.63;;;435.60;1459.20;;;;;;5057552;28;20044;-66
2021/09/06 06:10:18;;;;;;;5.18;2.00;;;435.60;1484.80;;;;;;5075853;28;20470;-66
2021/09/06 06:12:44;;;;;;;4.30;2.22;;;435.70;1484.80;;;;;;5075350;28;20493;-67
2021/09/06 06:15:10;;;;;;;9.02;2.80;;;435.70;1459.20;;;;;;5075795;28;20020;-67
2021/09/06 06:17:39;;;;;;;4.70;2.83;;;435.70;1484.80;;;;;;5075415;28;20100;-65
2021/09/06 06:20:05;;;;;;;10.23;3.20;;;435.80;1484.80;;;;;;5075640;28;20044;-65
2021/09/06 06:22:31;;;;;;;4.82;2.72;;;435.80;1484.80;;;;;;5075020;28;20048;-66
2021/09/06 06:24:57;;;;;;;6.53;3.33;;;435.90;1484.80;;;;;;5075397;28;20086;-66
2021/09/06 06:27:22;;;;;;;5.85;2.95;;;435.90;1510.40;;;;;;5074189;28;20036;-65
2021/09/06 06:29:48;;;;;;;6.38;3.00;;;436.00;1510.40;;;;;;5075185;28;20090;-67
2021/09/06 06:32:14;;;;;;;6.82;2.88;;;436.00;1510.40;;;;;;5078199;28;20027;-66
2021/09/06 06:34:40;;;;;;;3.65;2.35;;;460.80;1510.40;;;;;;5075610;28;20412;-66
2021/09/06 06:37:05;;;;;;;6.55;2.63;;;460.80;1510.40;;;;;;5075018;28;20025;-66
2021/09/06 06:39:31;;;;;;;5.57;2.90;;;460.80;1510.40;;;;;;5056777;28;20028;-66
2021/09/06 06:41:57;;;;;;;3.90;2.70;;;460.90;1536.00;;;;;;5074701;28;20485;-67
2021/09/06 06:44:23;;;;;;;7.57;2.55;;;460.90;1510.40;;;;;;5074951;28;20017;-67
2021/09/06 06:46:49;;;;;;;7.07;2.88;;;461.00;1510.40;;;;;;5075016;28;20031;-66
2021/09/06 06:49:15;;;;;;;6.32;2.42;;;461.10;1510.40;;;;;;5056754;28;20127;-66
2021/09/06 06:51:41;;;;;;;6.78;3.33;;;461.10;1510.40;;;;;;5074873;28;20024;-67
2021/09/06 06:54:08;;;;;;;4.65;2.92;;;461.20;1510.40;;;;;;5074954;28;20403;-66
2021/09/06 06:56:34;;;;;;;6.38;2.90;;;461.20;1510.40;;;;;;5074928;28;20028;-66
2021/09/06 06:58:59;;;;;;;6.63;3.03;;;461.20;1536.00;;;;;;5073721;28;20020;-66
2021/09/06 07:01:25;;;;;;;6.97;2.92;;;461.40;1536.00;;;;;;5074588;28;20059;-67
2021/09/06 07:03:51;;;;;;;6.97;3.00;;;461.40;1536.00;;;;;;5074820;28;20028;-66
2021/09/06 07:06:17;;;;;;;6.80;3.20;;;461.50;1510.40;;;;;;5074565;28;20036;-67
2021/09/06 07:08:42;;;;;;;4.88;2.83;;;461.60;1510.40;;;;;;5074920;28;20097;-66
2021/09/06 07:11:08;;;;;;;10.35;3.28;;;461.60;1510.40;;;;;;5074372;28;20048;-66
2021/09/06 07:13:34;;;;;;;10.85;3.08;;;486.40;1510.40;;;;;;5055635;28;20095;-66
2021/09/06 07:16:00;;;;;;;6.43;3.38;;;486.50;1510.40;;;;;;5074076;28;20481;-66
2021/09/06 07:18:25;;;;;;;4.88;3.25;;;486.50;1536.00;;;;;;5046490;28;20037;-65
2021/09/06 07:20:51;;;;;;;12.85;3.60;;;486.60;1510.40;;;;;;5062918;28;20065;-65
2021/09/06 07:23:17;;;;;;;5.05;3.50;;;486.80;1536.00;;;;;;5063157;28;20378;-66
2021/09/06 07:25:43;;;;;;;6.30;3.67;;;486.90;1510.40;;;;;;5034854;28;20032;-66
2021/09/06 07:28:08;;;;;;;6.03;3.50;;;487.00;1510.40;;;;;;5062580;28;20051;-65
2021/09/06 07:30:34;;;;;;;6.78;3.40;;;487.10;1510.40;;;;;;5042254;28;20085;-65
2021/09/06 07:33:02;;;;;;;13.07;3.92;;;487.30;1484.80;;;;;;5062011;28;20024;-65
2021/09/06 07:35:28;;;;;;;14.68;4.03;;;512.00;1484.80;;;;;;5061255;28;20091;-65
2021/09/06 07:37:54;;;;;;;13.63;3.67;;;512.20;1484.80;;;;;;5063439;28;20020;-65
2021/09/06 07:40:21;;;;;;;9.68;3.97;;;512.50;1459.20;;;;;;5062230;28;20110;-66
2021/09/06 07:42:47;;;;;;;7.93;3.67;;;512.70;1459.20;;;;;;5061358;28;20071;-66
2021/09/06 07:45:13;;;;;;;8.13;4.25;;;537.60;1459.20;;;;;;5063621;28;20421;-66
2021/09/06 07:47:38;;;;;;;6.20;4.15;;;537.70;1459.20;;;;;;5067394;28;20036;-67
2021/09/06 07:50:07;;;;;;;7.22;4.72;;;537.90;1459.20;;;;;;5058465;28;20029;-66
2021/09/06 07:52:34;;;;;;;6.28;4.43;;;538.10;1433.60;;;;;;5061299;28;20028;-68
2021/09/06 07:55:01;;;;;;;8.13;4.32;;;538.40;1408.00;;;;;;5070089;28;20028;-64
2021/09/06 07:57:26;;;;;;;7.82;4.32;;;538.50;1408.00;;;;;;5038138;28;20037;-68
2021/09/06 07:59:52;;;;;;;15.40;4.57;;;563.20;1433.60;;;;;;5053649;28;20466;-66
2021/09/06 08:02:18;;;;;;;12.82;4.30;;;563.50;1408.00;;;;;;5065175;28;20112;-64
2021/09/06 08:04:43;;;;;;;12.40;4.95;;;563.60;1382.40;;;;;;5062912;28;20585;-65
2021/09/06 08:07:09;;;;;;;8.45;5.43;;;563.80;1382.40;;;;;;5039298;28;20094;-64
2021/09/06 08:09:35;;;;;;;11.40;5.13;;;564.00;1382.40;;;;;;5062462;28;20462;-66
2021/09/06 08:12:01;;;;;;;9.20;4.57;;;588.80;1356.80;;;;;;5064503;28;20478;-66
2021/09/06 08:14:27;;;;;;;25.52;5.55;;;588.90;1331.20;;;;;;5060714;28;20017;-66
2021/09/06 08:16:53;;;;;;;15.10;6.05;;;589.00;1331.20;;;;;;5061934;28;20158;-65
2021/09/06 08:19:19;;;;;;;13.55;5.65;;;589.30;1280.00;;;;;;5062172;28;20100;-64
2021/09/06 08:21:46;;;;;;;9.50;4.68;;;589.40;1305.60;;;;;;5040001;28;20111;-65
2021/09/06 08:24:13;;;;;;;7.45;4.60;;;589.50;1280.00;;;;;;5041634;28;20134;-64
2021/09/06 08:26:39;;;;;;;6.85;4.65;;;589.60;1305.60;;;;;;5060401;28;20107;-64
2021/09/06 08:29:06;;;;;;;8.70;4.80;;;589.70;1280.00;;;;;;5060847;28;20053;-66
2021/09/06 08:31:32;;;;;;;8.07;5.15;;;614.40;1254.40;;;;;;5062130;28;20036;-66
2021/09/06 08:33:58;;;;;;;12.25;5.68;;;614.50;1254.40;;;;;;5060035;28;20413;-65
2021/09/06 08:36:25;;;;;;;17.13;5.85;;;614.70;1228.80;;;;;;5062310;28;20044;-66
2021/09/06 08:38:51;;;;;;;11.95;5.40;;;614.90;1203.20;;;;;;5060537;28;20033;-64
2021/09/06 08:41:17;;;;;;;9.68;5.20;;;615.00;1177.60;;;;;;5062623;28;20395;-64
2021/09/06 08:43:42;;;;;;;10.90;5.28;;;615.10;1177.60;;;;;;5062108;28;20077;-64
2021/09/06 08:46:08;;;;;;;9.50;5.10;;;615.20;1152.00;;;;;;5064151;28;20021;-65
2021/09/06 08:48:34;;;;;;;8.52;5.40;;;640.00;1152.00;;;;;;5064887;28;20035;-66
2021/09/06 08:51:00;;;;;;;13.48;5.68;;;640.00;1152.00;;;;;;5065243;28;20548;-65
2021/09/06 08:53:26;;;;;;;13.13;5.60;;;640.20;1152.00;;;;;;5064353;28;20027;-66
2021/09/06 08:55:55;;;;;;;10.60;5.28;;;640.30;1152.00;;;;;;5065765;28;20020;-66
2021/09/06 08:58:21;;;;;;;9.73;4.75;;;640.40;1152.00;;;;;;5061278;28;20025;-66
2021/09/06 09:00:50;;;;;;;14.85;5.95;;;640.50;1126.40;;;;;;5057093;28;20033;-66
2021/09/06 09:03:16;;;;;;;14.05;5.13;;;640.50;1152.00;;;;;;5059396;28;20029;-66
2021/09/06 09:06:00;;;;;;;11.40;5.65;;;640.60;1126.40;;;;;;5061350;28;20479;-66
2021/09/06 09:08:26;;;;;;;14.80;5.57;;;640.70;1100.80;;;;;;5056961;28;20052;-66
2021/09/06 09:10:57;;;;;;;13.27;5.75;;;640.80;1100.80;;;;;;5056882;28;20025;-66
2021/09/06 09:13:26;;;;;;;11.90;5.35;;;640.80;1100.80;;;;;;5056736;28;20045;-67
2021/09/06 09:15:53;;;;;;;8.70;4.35;;;640.80;1126.40;;;;;;5056725;28;20106;-68
2021/09/06 09:18:30;;;;;;;10.63;5.13;;;640.80;1126.40;;;;;;5056734;28;20033;-69
2021/09/06 09:21:08;;;;;;;21.73;12.27;;;665.60;1100.80;;;;;;5056861;28;20059;-66
2021/09/06 09:23:41;;;;;;;9.38;5.85;;;665.70;1100.80;;;;;;5056587;28;20025;-67
2021/09/06 09:26:07;;;;;;;13.77;6.77;;;665.70;1100.80;;;;;;5056517;28;20557;-67
2021/09/06 09:28:37;;;;;;;11.93;4.45;;;665.70;1126.40;;;;;;5056653;28;20261;-67
2021/09/06 09:31:06;;;;;;;11.32;5.07;;;665.90;1075.20;;;;;;5056705;28;20041;-67
2021/09/06 09:33:38;;;;;;;8.90;4.90;;;666.00;1049.60;;;;;;5056597;28;20112;-68
2021/09/06 09:36:04;;;;;;;13.68;5.03;;;666.00;1049.60;;;;;;5056406;28;20021;-67
2021/09/06 09:38:35;;;;;;;11.68;5.60;;;666.10;1049.60;;;;;;5056871;28;20421;-67
2021/09/06 09:41:00;;;;;;;13.25;5.00;;;666.10;1024.00;;;;;;5056347;28;20032;-67
2021/09/06 09:43:30;;;;;;;26.60;5.15;;;666.10;1049.60;;;;;;5037957;28;20021;-67
2021/09/06 09:46:05;;;;;;;12.02;4.80;;;666.30;1024.00;;;;;;5056345;28;20029;-67
2021/09/06 09:48:31;;;;;;;8.98;4.30;;;666.30;1049.60;;;;;;5056267;28;20033;-67
2021/09/06 09:50:57;;;;;;;17.75;5.45;;;666.30;1075.20;;;;;;5056312;28;20116;-67
2021/09/06 09:53:23;;;;;;;10.95;4.68;;;666.30;1049.60;;;;;;5056013;28;20032;-67
2021/09/06 09:55:49;;;;;;;10.32;5.18;;;666.40;1049.60;;;;;;5055809;28;20029;-67
2021/09/06 09:58:16;;;;;;;11.77;5.25;;;666.30;1049.60;;;;;;5054587;28;20116;-67
2021/09/06 10:00:45;;;;;;;7.78;4.80;;;666.40;1049.60;;;;;;5055560;28;20021;-66
2021/09/06 10:03:11;;;;;;;9.57;5.00;;;691.20;1024.00;;;;;;5053666;28;20032;-64
2021/09/06 10:05:39;;;;;;;11.63;4.57;;;691.20;1024.00;;;;;;5061403;28;20048;-65
2021/09/06 10:08:12;;;;;;;9.82;4.88;;;691.20;1024.00;;;;;;5063569;28;20040;-65
2021/09/06 10:10:40;;;;;;;11.02;4.63;;;691.20;1049.60;;;;;;5063075;28;20021;-65
2021/09/06 10:13:16;;;;;;;9.32;4.53;;;691.20;1049.60;;;;;;5044860;28;20056;-66
2021/09/06 10:15:55;;;;;;;31.48;13.15;;;691.20;1049.60;;;;;;5062426;28;20016;-65
2021/09/06 10:18:22;;;;;;;19.38;9.50;;;691.20;1024.00;;;;;;5061890;28;20024;-66
2021/09/06 10:20:49;;;;;;;13.68;8.63;;;691.30;1024.00;;;;;;5061939;28;20367;-65
2021/09/06 10:23:15;;;;;;;12.88;7.18;;;691.30;1049.60;;;;;;5063688;28;20535;-66
2021/09/06 10:25:43;;;;;;;11.70;5.13;;;691.30;1024.00;;;;;;5063267;28;20021;-66
2021/09/06 10:28:13;;;;;;;11.65;5.65;;;691.30;1049.60;;;;;;5061734;28;20037;-65
2021/09/06 10:30:44;;;;;;;8.48;4.30;;;691.40;1024.00;;;;;;5062923;28;20382;-66
2021/09/06 10:33:55;;;;;;;9.18;4.50;;;691.50;998.40;;;;;;5059249;28;20017;-65
2021/09/06 10:36:21;;;;;;;8.55;4.85;;;691.50;998.40;;;;;;5002478;28;20101;-66
2021/09/06 10:38:49;;;;;;;8.52;5.40;;;691.50;998.40;;;;;;5000885;28;20153;-66
2021/09/06 10:41:18;;;;;;;5.05;4.40;;;691.50;1024.00;;;;;;5001863;28;20044;-66
2021/09/06 10:43:48;;;;;;;8.38;4.78;;;691.50;1024.00;;;;;;4985958;28;20081;-66
2021/09/06 10:46:15;;;;;;;12.20;4.80;;;691.50;1049.60;;;;;;5001163;28;20038;-65
2021/09/06 10:48:41;;;;;;;10.13;4.45;;;691.70;998.40;;;;;;5000859;28;20087;-65
2021/09/06 10:51:07;;;;;;;9.73;5.40;;;691.50;1024.00;;;;;;5002710;28;20483;-65
2021/09/06 10:53:33;;;;;;;10.60;5.40;;;691.50;1024.00;;;;;;5001058;28;20030;-65
2021/09/06 10:55:59;;;;;;;7.50;5.07;;;691.40;1024.00;;;;;;5001339;28;20033;-65
2021/09/06 10:58:28;;;;;;;21.38;5.82;;;691.40;1024.00;;;;;;5002512;28;20462;-65
2021/09/06 11:01:00;;;;;;;15.38;5.50;;;691.50;998.40;;;;;;4999038;28;20044;-64
2021/09/06 11:03:34;;;;;;;9.70;4.75;;;691.60;972.80;;;;;;4983415;28;20130;-64
2021/09/06 11:06:00;;;;;;;8.40;5.10;;;691.70;972.80;;;;;;5001104;28;20026;-64
2021/09/06 11:08:28;;;;;;;15.40;4.90;;;691.70;998.40;;;;;;5005355;28;20042;-64
2021/09/06 11:10:56;;;;;;;9.13;5.65;;;691.70;998.40;;;;;;5040701;28;20040;-63
2021/09/06 11:13:23;;;;;;;5.85;4.82;;;691.60;998.40;;;;;;5022011;28;20041;-64
2021/09/06 11:15:49;;;;;;;10.35;5.60;;;691.70;998.40;;;;;;5034482;28;20041;-64
2021/09/06 11:18:15;;;;;;;10.52;4.93;;;691.60;998.40;;;;;;5034303;28;20462;-65
2021/09/06 11:20:46;;;;;;;8.25;5.80;;;691.60;1024.00;;;;;;5034050;28;20030;-65
2021/09/06 11:23:12;;;;;;;8.00;4.95;;;691.60;998.40;;;;;;5034098;28;20036;-65
2021/09/06 11:25:41;;;;;;;11.10;5.47;;;691.50;998.40;;;;;;5033920;28;20026;-64
2021/09/06 11:28:12;;;;;;;10.02;5.72;;;691.70;972.80;;;;;;5033801;28;20064;-65
2021/09/06 11:30:46;;;;;;;11.43;6.10;;;691.70;998.40;;;;;;5033985;28;20036;-64
2021/09/06 11:33:13;;;;;;;8.13;5.65;;;691.80;998.40;;;;;;5033822;28;20033;-65
2021/09/06 11:35:42;;;;;;;10.23;5.65;;;691.80;972.80;;;;;;5033991;28;20083;-64
2021/09/06 11:38:09;;;;;;;8.02;5.35;;;691.70;972.80;;;;;;5034163;28;20021;-65
2021/09/06 11:40:36;;;;;;;13.70;5.78;;;691.60;998.40;;;;;;5033240;28;20021;-65
2021/09/06 11:43:04;;;;;;;9.70;5.63;;;691.50;998.40;;;;;;5033806;28;20049;-64
2021/09/06 11:45:30;;;;;;;7.70;5.28;;;691.60;998.40;;;;;;5034068;28;20013;-63
2021/09/06 11:48:06;;;;;;;11.75;6.40;;;691.50;972.80;;;;;;5033381;28;20044;-64
2021/09/06 11:50:38;;;;;;;7.95;5.68;;;691.60;972.80;;;;;;5016031;28;20475;-64
2021/09/06 11:53:09;;;;;;;6.78;5.38;;;691.60;998.40;;;;;;5033967;28;20033;-64
2021/09/06 11:55:36;;;;;;;10.23;6.00;;;691.70;998.40;;;;;;5033854;28;20030;-63
2021/09/06 11:58:10;;;;;;;8.10;5.95;;;691.70;998.40;;;;;;5033559;28;20029;-62
2021/09/06 12:00:41;;;;;;;11.13;6.07;;;691.70;998.40;;;;;;5015092;28;20080;-64
2021/09/06 12:03:08;;;;;;;11.73;5.70;;;691.70;972.80;;;;;;5014944;28;20017;-65
2021/09/06 12:05:41;;;;;;;9.50;5.60;;;691.70;998.40;;;;;;5032996;28;20096;-64
2021/09/06 12:08:12;;;;;;;10.45;5.70;;;691.80;998.40;;;;;;5025407;28;20043;-64
2021/09/06 12:10:40;;;;;;;9.20;6.07;;;691.80;998.40;;;;;;5032856;28;20030;-64
2021/09/06 12:13:18;;;;;;;9.75;5.82;;;691.80;998.40;;;;;;5050410;28;20049;-63